Lanzarote Airport

GCRR | ACE

Lanzarote Island , Canary-Islands , Spain

Monday, January 27th, 2020 | 00:31

Weather

GCRR 270000Z 01006KT 9999 FEW030 15/11 Q1025

Charts

No Charts Available

Gates

42 Available

Runways

1 Available

Events

No events for this airport


New event